Time;durP1;ratioP1;P1;durP2;ratioP2;P2;SDS_P1;SDS_P2;PMS_P1;PMS_P2;Temp;Humidity;BMP_temperature;BMP_pressure;BME280_temperature;BME280_humidity;BME280_pressure;Samples;Min_cycle;Max_cycle;Signal;HPM_P1;HPM_P2
2022/10/05 00:02:51;;;;;;;16.53;7.40;;;8.40;1.00;;;;;;5086315;28;20554;-91
2022/10/05 00:06:03;;;;;;;23.30;7.20;;;8.40;1.00;;;;;;5088743;28;20429;-90
2022/10/05 00:12:16;;;;;;;24.27;7.43;;;8.30;1.00;;;;;;5078524;28;20436;-90
2022/10/05 00:18:17;;;;;;;21.43;8.40;;;8.20;1.00;;;;;;5084127;28;20415;-90
2022/10/05 00:27:32;;;;;;;19.40;7.77;;;8.20;1.00;;;;;;5077234;28;20744;-80
2022/10/05 00:30:53;;;;;;;20.30;7.97;;;8.10;1.00;;;;;;5084509;28;20425;-80
2022/10/05 00:36:41;;;;;;;22.47;8.57;;;8.10;1.00;;;;;;5080741;28;20795;-80
2022/10/05 00:39:28;;;;;;;17.27;8.30;;;8.10;1.00;;;;;;5080519;28;20444;-80
2022/10/05 00:49:17;;;;;;;15.30;8.20;;;8.00;2.30;;;;;;5077477;28;20408;-80
2022/10/05 00:52:28;;;;;;;12.93;7.40;;;8.00;4.90;;;;;;5076555;28;20453;-80
2022/10/05 00:55:20;;;;;;;24.07;8.37;;;8.00;9.00;;;;;;5031093;28;20533;-80
2022/10/05 01:01:12;;;;;;;19.00;9.80;;;8.00;13.70;;;;;;5033794;28;20425;-80
2022/10/05 01:07:32;;;;;;;20.00;9.73;;;8.00;20.10;;;;;;5015940;28;20537;-80
2022/10/05 01:10:45;;;;;;;18.30;9.47;;;8.00;20.80;;;;;;5021426;28;20422;-80
2022/10/05 01:16:46;;;;;;;24.60;9.90;;;8.10;22.10;;;;;;5021476;28;20497;-80
2022/10/05 01:23:15;;;;;;;28.03;9.13;;;8.10;24.80;;;;;;5031696;28;20429;-80
2022/10/05 01:26:08;;;;;;;22.33;11.30;;;8.10;25.60;;;;;;5018515;28;20457;-80
2022/10/05 01:32:04;;;;;;;23.63;10.27;;;8.10;24.70;;;;;;5050220;28;20506;-80
2022/10/05 01:35:15;;;;;;;23.60;11.30;;;8.10;27.50;;;;;;5077363;28;20448;-80
2022/10/05 01:38:26;;;;;;;22.10;9.67;;;8.10;30.20;;;;;;5074526;28;20445;-80
2022/10/05 01:44:23;;;;;;;22.17;11.50;;;8.00;26.80;;;;;;5083621;28;20743;-90
2022/10/05 01:50:33;;;;;;;26.43;10.47;;;8.00;25.80;;;;;;5077831;28;20471;-91
2022/10/05 01:56:26;;;;;;;18.20;10.80;;;8.10;22.50;;;;;;5075213;28;20404;-81
2022/10/05 02:02:17;;;;;;;32.13;11.05;;;8.10;21.60;;;;;;5038320;28;1098089;-80
2022/10/05 02:08:40;;;;;;;22.40;11.57;;;8.00;20.00;;;;;;5088092;28;20413;-80
2022/10/05 02:11:34;;;;;;;25.10;11.53;;;8.10;21.60;;;;;;4996728;28;20550;-80
2022/10/05 02:14:35;;;;;;;28.20;12.03;;;8.10;24.80;;;;;;4991297;28;20527;-91
2022/10/05 02:20:27;;;;;;;21.80;13.00;;;8.00;30.00;;;;;;4993703;28;20966;-90
2022/10/05 02:26:17;;;;;;;24.70;12.67;;;8.10;37.10;;;;;;5003447;28;20419;-90
2022/10/05 02:29:04;;;;;;;32.83;14.67;;;8.00;32.40;;;;;;4985362;28;20431;-90
2022/10/05 02:32:03;;;;;;;25.77;11.03;;;8.00;34.70;;;;;;4996958;28;20462;-90
2022/10/05 02:41:23;;;;;;;23.73;12.40;;;8.00;28.80;;;;;;5013707;28;20434;-91
2022/10/05 02:44:17;;;;;;;28.20;12.67;;;8.00;25.40;;;;;;4995841;28;20838;-91
2022/10/05 02:47:03;;;;;;;24.97;11.80;;;8.00;26.40;;;;;;4997176;28;20412;-91
2022/10/05 02:49:48;;;;;;;19.97;11.90;;;7.90;25.10;;;;;;5077061;28;20524;-89
2022/10/05 02:53:03;;;;;;;29.77;12.70;;;7.90;21.10;;;;;;5075117;28;20453;-90
2022/10/05 02:55:34;;;;;;;22.67;11.43;;;7.90;19.80;;;;;;5090435;28;20524;-90
2022/10/05 02:58:33;;;;;;;27.60;11.90;;;7.90;17.90;;;;;;5090181;28;20486;-91
2022/10/05 03:01:16;;;;;;;23.83;11.10;;;7.90;16.40;;;;;;5073688;28;20425;-90
2022/10/05 03:04:33;;;;;;;24.40;11.43;;;7.90;14.90;;;;;;5075696;28;20599;-91
2022/10/05 03:07:36;;;;;;;21.00;11.40;;;7.90;14.30;;;;;;5074436;28;20741;-91
2022/10/05 03:13:41;;;;;;;22.30;11.50;;;7.80;14.40;;;;;;5089102;28;20450;-81
2022/10/05 03:23:02;;;;;;;23.93;13.00;;;7.70;16.00;;;;;;5073349;28;20489;-80
2022/10/05 03:25:51;;;;;;;29.40;13.40;;;7.70;15.80;;;;;;5082224;28;20413;-80
2022/10/05 03:29:03;;;;;;;29.13;12.77;;;7.70;12.90;;;;;;5087991;28;20516;-80
2022/10/05 03:32:09;;;;;;;25.83;12.30;;;7.60;14.30;;;;;;5078837;28;20932;-80
2022/10/05 03:35:13;;;;;;;24.60;13.07;;;7.60;11.80;;;;;;5080812;28;21017;-80
2022/10/05 03:38:16;;;;;;;22.80;12.90;;;7.60;12.60;;;;;;5083147;28;20427;-80
2022/10/05 03:41:08;;;;;;;31.30;12.33;;;7.60;12.90;;;;;;5086434;28;20403;-80
2022/10/05 03:43:58;;;;;;;23.90;13.97;;;7.50;14.20;;;;;;5074594;28;20422;-91
2022/10/05 03:49:57;;;;;;;28.20;13.60;;;7.70;20.10;;;;;;5088963;28;20393;-90
2022/10/05 03:56:33;;;;;;;30.97;13.97;;;8.00;30.40;;;;;;5075100;28;20409;-90
2022/10/05 03:59:13;;;;;;;30.93;14.53;;;8.10;41.20;;;;;;5074632;28;20390;-91
2022/10/05 04:01:43;;;;;;;34.10;14.40;;;8.20;41.30;;;;;;5082316;28;20476;-90
2022/10/05 04:04:17;;;;;;;41.90;14.50;;;8.30;41.60;;;;;;5077126;28;20442;-90
2022/10/05 04:07:05;;;;;;;78.57;18.10;;;8.40;41.50;;;;;;5075041;28;20505;-90
2022/10/05 04:13:03;;;;;;;38.20;17.30;;;8.70;41.70;;;;;;5082456;28;20596;-82
2022/10/05 04:15:42;;;;;;;49.20;18.17;;;8.80;41.80;;;;;;5078784;28;20490;-80
2022/10/05 04:19:03;;;;;;;54.80;17.97;;;9.00;42.10;;;;;;5074976;28;20811;-81
2022/10/05 04:22:06;;;;;;;48.47;18.67;;;9.10;42.00;;;;;;5076838;28;20433;-80
2022/10/05 04:25:09;;;;;;;53.30;17.33;;;9.20;42.10;;;;;;5081357;28;20428;-80
2022/10/05 04:28:10;;;;;;;53.17;17.00;;;9.40;42.30;;;;;;5086068;28;20426;-82
2022/10/05 04:31:05;;;;;;;56.63;16.30;;;9.50;42.50;;;;;;5081603;28;20462;-81
2022/10/05 04:33:33;;;;;;;93.93;22.27;;;9.60;42.50;;;;;;5080978;28;20769;-80
2022/10/05 04:36:23;;;;;;;55.83;16.63;;;9.70;42.50;;;;;;5088217;28;20408;-80
2022/10/05 04:39:33;;;;;;;82.70;18.93;;;9.70;42.50;;;;;;5072557;28;20797;-81
2022/10/05 04:42:39;;;;;;;73.17;18.67;;;9.90;42.70;;;;;;5083285;28;20435;-81
2022/10/05 04:49:11;;;;;;;118.70;19.07;;;10.00;42.00;;;;;;5077857;28;20412;-91
2022/10/05 04:51:49;;;;;;;59.70;19.23;;;10.10;41.90;;;;;;5091027;28;20452;-91
2022/10/05 04:54:39;;;;;;;104.27;20.30;;;10.20;42.30;;;;;;5079311;28;20423;-90
2022/10/05 04:57:33;;;;;;;109.60;21.13;;;10.30;42.30;;;;;;5097381;28;20387;-91
2022/10/05 05:00:40;;;;;;;56.97;19.57;;;10.30;42.10;;;;;;5081388;28;20476;-86
2022/10/05 05:03:53;;;;;;;65.47;20.80;;;10.40;42.20;;;;;;5087878;28;20447;-80
2022/10/05 05:06:38;;;;;;;57.67;21.17;;;10.40;42.20;;;;;;5027801;28;20577;-81
2022/10/05 05:09:45;;;;;;;61.70;22.43;;;10.40;42.20;;;;;;5025142;28;20450;-85
2022/10/05 05:12:53;;;;;;;66.27;24.57;;;10.40;42.20;;;;;;5014540;28;20462;-84
2022/10/05 05:15:50;;;;;;;72.27;17.50;;;10.40;42.20;;;;;;4960252;28;20486;-83
2022/10/05 05:18:36;;;;;;;66.03;19.97;;;10.30;42.30;;;;;;4947525;28;20984;-74
2022/10/05 05:21:22;;;;;;;71.93;18.80;;;10.40;42.20;;;;;;4954175;28;20449;-75
2022/10/05 05:24:20;;;;;;;65.63;21.30;;;10.40;42.20;;;;;;4909978;29;20997;-74
2022/10/05 05:27:18;;;;;;;167.97;54.60;;;10.40;42.20;;;;;;4898471;29;20792;-74
2022/10/05 05:30:03;;;;;;;77.73;21.63;;;10.40;42.20;;;;;;4893099;29;20448;-74
2022/10/05 05:32:52;;;;;;;80.77;24.00;;;10.40;42.20;;;;;;4881661;29;20573;-74
2022/10/05 05:35:36;;;;;;;49.83;17.30;;;10.40;42.20;;;;;;4897068;29;20453;-74
2022/10/05 05:38:31;;;;;;;40.60;16.03;;;10.30;42.20;;;;;;4887151;29;20817;-74
2022/10/05 05:41:19;;;;;;;46.47;15.60;;;10.30;42.10;;;;;;4880886;29;20529;-74
2022/10/05 05:44:13;;;;;;;256.70;108.50;;;10.40;42.20;;;;;;4916783;29;21065;-74
2022/10/05 05:47:00;;;;;;;59.47;22.53;;;10.40;42.20;;;;;;4937154;29;20444;-74
2022/10/05 05:49:32;;;;;;;42.80;17.50;;;10.50;42.30;;;;;;4933002;29;20495;-75
2022/10/05 05:52:24;;;;;;;38.23;17.70;;;10.50;42.50;;;;;;4945294;28;20477;-75
2022/10/05 05:55:07;;;;;;;43.70;21.70;;;10.60;42.40;;;;;;4984488;28;20432;-75
2022/10/05 05:57:54;;;;;;;45.70;20.53;;;10.60;42.60;;;;;;4973389;28;20798;-75
2022/10/05 06:00:33;;;;;;;40.07;18.07;;;10.60;42.40;;;;;;4996638;28;20446;-74
2022/10/05 06:03:24;;;;;;;51.03;22.53;;;10.60;42.50;;;;;;5062124;28;20455;-74
2022/10/05 06:06:03;;;;;;;38.73;17.80;;;10.60;42.40;;;;;;5079259;28;20428;-74
2022/10/05 06:08:44;;;;;;;188.13;85.70;;;10.60;42.40;;;;;;5076117;28;20429;-74
2022/10/05 06:11:38;;;;;;;67.17;33.23;;;10.70;42.50;;;;;;5075051;28;20435;-74
2022/10/05 06:14:11;;;;;;;40.23;17.93;;;10.80;42.60;;;;;;5076263;28;20440;-74
2022/10/05 06:17:05;;;;;;;53.00;19.83;;;10.90;42.60;;;;;;5086979;28;20405;-75
2022/10/05 06:19:47;;;;;;;105.27;43.67;;;10.90;42.60;;;;;;5078708;28;20425;-74
2022/10/05 06:22:37;;;;;;;78.23;30.00;;;11.00;42.70;;;;;;5078273;28;20429;-74
2022/10/05 06:25:12;;;;;;;57.97;22.30;;;11.10;42.90;;;;;;5066425;28;20496;-74
2022/10/05 06:28:03;;;;;;;85.20;34.50;;;11.20;43.00;;;;;;5075173;28;20450;-74
2022/10/05 06:30:46;;;;;;;98.67;40.27;;;11.30;43.40;;;;;;5076512;28;20454;-74
2022/10/05 06:33:51;;;;;;;151.13;55.47;;;11.40;36.60;;;;;;5086968;28;20422;-74
2022/10/05 06:36:22;;;;;;;247.97;99.73;;;11.50;28.10;;;;;;5078474;28;20835;-74
2022/10/05 06:38:56;;;;;;;66.23;24.87;;;11.60;20.20;;;;;;5083230;28;20508;-74
2022/10/05 06:41:43;;;;;;;309.13;120.03;;;11.70;23.20;;;;;;5080030;28;20413;-74
2022/10/05 06:44:30;;;;;;;453.90;191.67;;;11.70;21.40;;;;;;5076504;28;20527;-74
2022/10/05 06:47:12;;;;;;;106.70;43.07;;;11.80;20.20;;;;;;5079755;28;20757;-74
2022/10/05 06:49:58;;;;;;;690.37;397.90;;;11.90;18.70;;;;;;5081095;28;20476;-75
2022/10/05 06:52:47;;;;;;;85.03;36.30;;;12.00;11.40;;;;;;5028217;28;20444;-74
2022/10/05 06:55:33;;;;;;;37.53;19.57;;;12.10;9.20;;;;;;5018204;28;20438;-74
2022/10/05 06:58:44;;;;;;;110.87;51.63;;;12.20;9.90;;;;;;5036630;28;20441;-75
2022/10/05 07:01:14;;;;;;;75.97;36.43;;;12.30;11.80;;;;;;5000733;28;20439;-75
2022/10/05 07:04:00;;;;;;;31.77;17.03;;;12.20;7.00;;;;;;5006402;28;20451;-75
2022/10/05 07:06:36;;;;;;;43.13;21.50;;;12.30;1.00;;;;;;4991224;28;20856;-75
2022/10/05 07:09:17;;;;;;;39.87;19.30;;;12.40;1.00;;;;;;5004429;28;20447;-75
2022/10/05 07:12:01;;;;;;;31.03;15.13;;;12.50;1.00;;;;;;5005570;28;20445;-75
2022/10/05 07:14:39;;;;;;;32.97;15.43;;;12.60;1.00;;;;;;5004422;28;20516;-74
2022/10/05 07:17:29;;;;;;;32.07;15.27;;;12.60;1.00;;;;;;5003871;28;20427;-75
2022/10/05 07:19:59;;;;;;;39.10;15.40;;;12.70;1.00;;;;;;5000751;28;20431;-75
2022/10/05 07:22:28;;;;;;;52.10;17.67;;;12.80;1.00;;;;;;5007076;28;20534;-75
2022/10/05 07:24:56;;;;;;;36.40;18.63;;;12.90;1.00;;;;;;5008576;28;20416;-75
2022/10/05 07:27:26;;;;;;;26.43;13.53;;;12.90;1.00;;;;;;5007044;28;20451;-75
2022/10/05 07:30:03;;;;;;;25.97;13.73;;;13.00;1.00;;;;;;5022300;28;20834;-74
2022/10/05 07:33:01;;;;;;;30.53;14.43;;;13.10;1.00;;;;;;5065484;28;20441;-75
2022/10/05 07:38:39;;;;;;;32.30;16.77;;;13.30;1.00;;;;;;5083668;28;20419;-75
2022/10/05 07:41:21;;;;;;;27.13;14.03;;;13.40;1.00;;;;;;5082960;28;20457;-75
2022/10/05 07:43:50;;;;;;;33.33;15.03;;;13.60;1.00;;;;;;5081598;28;20766;-76
2022/10/05 07:46:46;;;;;;;27.30;15.60;;;13.50;1.00;;;;;;5073200;28;20395;-75
2022/10/05 07:49:21;;;;;;;26.30;14.50;;;13.50;1.00;;;;;;5075964;28;20482;-75
2022/10/05 07:52:09;;;;;;;25.90;14.77;;;13.50;1.00;;;;;;5071724;28;20445;-75
2022/10/05 07:54:35;;;;;;;28.00;15.53;;;13.60;1.00;;;;;;5073002;28;20832;-77
2022/10/05 07:57:33;;;;;;;34.67;17.30;;;13.70;1.00;;;;;;5078232;28;20392;-75
2022/10/05 08:00:13;;;;;;;37.00;19.93;;;13.60;1.00;;;;;;5086161;28;20183;-74
2022/10/05 08:02:52;;;;;;;55.50;28.23;;;13.70;1.00;;;;;;5073484;28;20444;-75
2022/10/05 08:05:31;;;;;;;109.77;58.07;;;13.80;1.00;;;;;;5087459;28;20783;-74
2022/10/05 08:08:11;;;;;;;80.77;43.60;;;13.60;1.00;;;;;;5075159;28;20422;-75
2022/10/05 08:10:48;;;;;;;37.67;18.30;;;13.60;1.00;;;;;;5080250;28;20456;-74
2022/10/05 08:13:30;;;;;;;99.37;56.60;;;13.50;1.00;;;;;;5078045;28;20441;-74
2022/10/05 08:16:02;;;;;;;38.53;19.77;;;13.70;1.00;;;;;;5076380;28;20413;-75
2022/10/05 08:18:58;;;;;;;27.30;15.63;;;13.80;1.00;;;;;;5079812;28;20505;-76
2022/10/05 08:21:42;;;;;;;28.63;17.23;;;13.90;1.00;;;;;;5076579;28;20451;-75
2022/10/05 08:24:17;;;;;;;33.90;17.87;;;13.80;1.00;;;;;;5077868;28;20448;-76
2022/10/05 08:26:53;;;;;;;38.70;19.60;;;13.80;1.00;;;;;;5081496;28;20423;-77
2022/10/05 08:29:34;;;;;;;32.70;18.80;;;13.70;1.00;;;;;;5076609;28;20388;-76
2022/10/05 08:32:11;;;;;;;35.03;19.87;;;13.90;1.00;;;;;;5083501;28;20790;-74
2022/10/05 08:35:11;;;;;;;32.63;19.43;;;13.90;1.00;;;;;;5075641;28;20420;-74
2022/10/05 08:37:40;;;;;;;34.63;18.57;;;14.00;1.00;;;;;;5080222;28;20425;-74
2022/10/05 08:40:20;;;;;;;31.70;19.40;;;14.10;1.00;;;;;;5073863;28;20452;-75
2022/10/05 08:43:03;;;;;;;38.53;19.93;;;14.30;1.00;;;;;;5090509;28;20492;-75
2022/10/05 08:45:38;;;;;;;31.00;19.70;;;14.30;1.00;;;;;;5075911;28;20401;-75
2022/10/05 08:48:34;;;;;;;40.93;25.60;;;14.50;1.00;;;;;;5075496;28;20403;-74
2022/10/05 08:51:21;;;;;;;37.00;21.47;;;14.40;1.00;;;;;;5078978;28;20505;-74
2022/10/05 08:53:50;;;;;;;39.30;21.00;;;14.40;1.00;;;;;;5081978;28;20949;-74
2022/10/05 08:56:24;;;;;;;38.43;20.83;;;14.50;1.00;;;;;;5079423;28;20440;-75
2022/10/05 08:59:28;;;;;;;38.33;19.63;;;14.60;1.00;;;;;;5076875;28;21168;-75
2022/10/05 09:02:44;;;;;;;35.27;19.80;;;14.50;1.00;;;;;;5076243;28;20463;-76
2022/10/05 09:05:31;;;;;;;37.10;21.07;;;14.70;1.00;;;;;;5000418;28;20443;-77
2022/10/05 09:08:33;;;;;;;34.83;19.97;;;14.90;1.00;;;;;;5005364;28;20554;-77
2022/10/05 09:11:17;;;;;;;29.80;18.80;;;15.00;1.00;;;;;;5000837;28;20520;-76
2022/10/05 09:13:57;;;;;;;30.07;18.43;;;15.00;1.00;;;;;;4999849;28;20428;-76
2022/10/05 09:16:44;;;;;;;28.60;17.30;;;14.90;1.00;;;;;;5002243;28;20448;-76
2022/10/05 09:19:41;;;;;;;24.33;15.63;;;14.90;1.00;;;;;;5002737;28;20782;-77
2022/10/05 09:26:00;;;;;;;25.63;15.83;;;14.90;1.00;;;;;;4997839;28;20423;-73
2022/10/05 09:28:49;;;;;;;23.97;15.77;;;15.00;1.00;;;;;;5006420;28;20458;-74
2022/10/05 09:31:57;;;;;;;23.70;15.97;;;15.20;1.00;;;;;;5010964;28;20446;-74
2022/10/05 09:34:50;;;;;;;24.60;16.10;;;15.40;1.00;;;;;;5011970;28;20391;-74
2022/10/05 09:37:35;;;;;;;26.77;15.93;;;15.40;1.00;;;;;;5008423;28;20857;-74
2022/10/05 09:40:27;;;;;;;25.10;15.83;;;15.50;1.00;;;;;;5031687;28;20380;-74
2022/10/05 09:43:15;;;;;;;21.87;14.60;;;15.60;1.00;;;;;;5083641;28;20426;-74
2022/10/05 09:46:30;;;;;;;24.03;16.90;;;16.00;1.00;;;;;;5087259;28;20436;-74
2022/10/05 09:49:33;;;;;;;21.37;14.43;;;16.00;1.00;;;;;;5029397;28;20503;-75
2022/10/05 09:52:05;;;;;;;23.43;15.43;;;16.30;1.00;;;;;;5033907;28;20475;-76
2022/10/05 09:54:51;;;;;;;22.47;14.93;;;16.20;1.00;;;;;;5026931;28;20584;-75
2022/10/05 09:57:38;;;;;;;22.70;14.83;;;16.30;1.00;;;;;;5037683;28;20409;-75
2022/10/05 10:00:22;;;;;;;22.50;14.73;;;16.40;1.00;;;;;;5030787;28;20481;-76
2022/10/05 10:03:12;;;;;;;19.50;14.47;;;16.50;1.00;;;;;;5014724;28;20431;-76
2022/10/05 10:06:36;;;;;;;23.73;15.97;;;16.70;1.00;;;;;;5028260;28;20431;-75
2022/10/05 10:09:15;;;;;;;25.40;14.93;;;16.90;1.00;;;;;;4968456;28;20425;-75
2022/10/05 10:11:58;;;;;;;23.90;14.73;;;17.10;1.00;;;;;;4973863;28;20797;-74
2022/10/05 10:15:06;;;;;;;28.10;17.00;;;17.40;1.00;;;;;;4973272;28;20424;-75
2022/10/05 10:17:56;;;;;;;29.47;17.10;;;17.40;1.00;;;;;;4916563;29;20404;-74
2022/10/05 10:20:51;;;;;;;28.23;15.80;;;17.40;1.00;;;;;;4915834;29;20401;-75
2022/10/05 10:23:45;;;;;;;30.30;17.53;;;17.50;1.00;;;;;;4916159;29;20405;-75
2022/10/05 10:26:33;;;;;;;31.23;16.70;;;17.10;1.00;;;;;;4969385;28;20397;-75
2022/10/05 10:29:32;;;;;;;31.70;17.90;;;17.20;1.00;;;;;;4966880;28;20428;-75
2022/10/05 10:31:58;;;;;;;33.13;18.07;;;17.20;1.00;;;;;;4965072;28;20451;-74
2022/10/05 10:34:44;;;;;;;30.70;17.00;;;17.20;1.00;;;;;;4973552;28;20410;-75
2022/10/05 10:37:51;;;;;;;36.10;19.07;;;17.40;1.00;;;;;;4972278;28;20219;-75
2022/10/05 10:40:45;;;;;;;36.80;19.27;;;17.10;1.00;;;;;;4970939;28;20426;-75
2022/10/05 10:43:48;;;;;;;38.33;19.07;;;17.10;1.00;;;;;;4954256;29;20398;-75
2022/10/05 10:46:35;;;;;;;31.87;17.90;;;17.30;1.00;;;;;;4979734;28;20430;-74
2022/10/05 10:49:40;;;;;;;30.00;18.03;;;17.60;1.00;;;;;;4988485;28;20437;-75
2022/10/05 10:52:26;;;;;;;33.07;16.90;;;17.70;1.00;;;;;;4986804;28;20903;-75
2022/10/05 10:55:37;;;;;;;27.03;15.00;;;18.00;1.00;;;;;;4997647;28;20959;-75
2022/10/05 10:58:02;;;;;;;22.30;13.80;;;18.20;1.00;;;;;;4989099;28;20519;-74
2022/10/05 11:00:53;;;;;;;20.07;13.90;;;18.30;1.00;;;;;;4989980;28;20440;-75
2022/10/05 11:03:39;;;;;;;22.50;14.10;;;18.30;1.00;;;;;;4991731;28;20683;-75
2022/10/05 11:06:08;;;;;;;16.97;10.90;;;18.50;1.00;;;;;;4990383;28;20533;-75
2022/10/05 11:09:09;;;;;;;13.10;9.70;;;18.70;1.00;;;;;;4990200;28;20673;-74
2022/10/05 11:11:40;;;;;;;9.17;6.63;;;19.00;1.00;;;;;;4988284;28;20919;-74
2022/10/05 11:14:30;;;;;;;7.17;6.47;;;19.50;1.00;;;;;;4990604;28;20966;-74
2022/10/05 11:17:24;;;;;;;10.07;6.97;;;19.60;1.00;;;;;;4991529;28;20414;-74
2022/10/05 11:20:08;;;;;;;5.30;4.80;;;19.70;1.00;;;;;;5004305;28;20488;-75
2022/10/05 11:22:56;;;;;;;7.33;4.80;;;19.70;1.00;;;;;;5040283;28;20407;-75
2022/10/05 11:25:43;;;;;;;6.67;4.57;;;19.90;1.00;;;;;;5045726;28;20443;-76
2022/10/05 11:28:26;;;;;;;5.70;4.57;;;20.40;1.00;;;;;;5036405;28;20442;-74
2022/10/05 11:31:06;;;;;;;5.10;4.57;;;20.50;1.00;;;;;;5039619;28;20534;-76
2022/10/05 11:34:09;;;;;;;6.40;4.70;;;20.80;1.00;;;;;;5075656;28;20415;-75
2022/10/05 11:37:16;;;;;;;7.10;4.30;;;20.60;1.00;;;;;;5078987;28;20421;-74
2022/10/05 11:39:53;;;;;;;6.90;3.80;;;20.50;1.00;;;;;;5025050;28;20438;-74
2022/10/05 11:42:39;;;;;;;4.20;3.80;;;20.50;1.00;;;;;;5023057;28;20497;-74
2022/10/05 11:45:57;;;;;;;4.23;3.83;;;20.40;1.00;;;;;;5023903;28;20458;-75
2022/10/05 11:48:42;;;;;;;5.37;4.10;;;20.40;1.00;;;;;;5028089;28;20436;-76
2022/10/05 11:51:13;;;;;;;10.43;3.57;;;20.50;1.00;;;;;;5024492;28;20436;-75
2022/10/05 11:54:07;;;;;;;3.47;3.27;;;20.40;1.00;;;;;;5032728;28;20516;-74
2022/10/05 11:56:57;;;;;;;7.47;3.73;;;20.40;1.00;;;;;;5023141;28;20451;-74
2022/10/05 11:59:33;;;;;;;6.70;3.30;;;20.50;1.00;;;;;;5025239;28;20900;-74
2022/10/05 12:02:24;;;;;;;4.10;3.70;;;20.40;1.00;;;;;;5042148;28;20565;-74
2022/10/05 12:05:26;;;;;;;3.80;3.40;;;20.50;1.00;;;;;;5033315;28;20427;-74
2022/10/05 12:08:11;;;;;;;4.10;3.03;;;20.50;1.00;;;;;;5029900;28;20454;-74
2022/10/05 12:10:55;;;;;;;7.37;3.20;;;20.40;1.00;;;;;;5021703;28;20818;-74
2022/10/05 12:13:32;;;;;;;6.13;3.13;;;20.40;1.00;;;;;;5030760;28;20471;-75
2022/10/05 12:16:17;;;;;;;5.63;3.50;;;20.40;1.00;;;;;;5051073;28;20435;-74
2022/10/05 12:18:59;;;;;;;5.27;3.60;;;20.40;1.00;;;;;;5080863;28;20403;-75
2022/10/05 12:21:45;;;;;;;4.60;3.73;;;20.20;1.00;;;;;;5086925;28;20435;-74
2022/10/05 12:25:03;;;;;;;3.63;3.20;;;20.20;1.00;;;;;;5096870;28;20423;-75
2022/10/05 12:27:46;;;;;;;4.23;3.40;;;20.20;1.00;;;;;;5001765;28;20487;-75
2022/10/05 12:30:56;;;;;;;3.87;3.37;;;20.30;1.00;;;;;;5008609;28;20450;-74
2022/10/05 12:33:42;;;;;;;6.10;3.33;;;20.40;1.00;;;;;;4953388;29;20538;-74
2022/10/05 12:36:22;;;;;;;4.37;3.27;;;20.50;1.00;;;;;;4948854;28;20421;-74
2022/10/05 12:39:25;;;;;;;3.60;3.03;;;20.40;1.00;;;;;;4945159;28;20496;-75
2022/10/05 12:42:14;;;;;;;8.87;3.57;;;20.50;1.00;;;;;;4880245;29;20490;-75
2022/10/05 12:44:55;;;;;;;3.97;3.33;;;20.70;1.00;;;;;;4880204;29;20417;-74
2022/10/05 12:47:57;;;;;;;7.10;3.17;;;20.90;1.00;;;;;;4883109;29;20436;-74
2022/10/05 12:50:35;;;;;;;6.60;2.97;;;21.50;1.00;;;;;;4877870;29;20438;-74
2022/10/05 12:53:13;;;;;;;6.40;3.23;;;21.70;1.00;;;;;;4877518;29;20528;-74
2022/10/05 12:56:04;;;;;;;4.37;2.93;;;21.90;1.00;;;;;;4879241;29;20455;-74
2022/10/05 12:58:53;;;;;;;3.43;3.10;;;21.50;1.00;;;;;;4874770;29;20448;-75
2022/10/05 13:01:18;;;;;;;3.90;2.93;;;21.60;1.00;;;;;;4903879;29;20456;-75
2022/10/05 13:04:09;;;;;;;2.97;2.77;;;21.50;1.00;;;;;;4965744;28;20938;-76
2022/10/05 13:06:48;;;;;;;4.17;3.17;;;21.20;1.00;;;;;;5029369;28;20197;-75
2022/10/05 13:09:37;;;;;;;2.83;2.60;;;21.00;1.00;;;;;;5015880;28;20438;-75
2022/10/05 13:12:22;;;;;;;3.20;2.90;;;20.90;1.00;;;;;;5019356;28;20492;-75
2022/10/05 13:15:00;;;;;;;5.60;2.97;;;20.90;1.00;;;;;;5031754;28;20431;-75
2022/10/05 13:17:29;;;;;;;2.60;2.40;;;20.60;1.00;;;;;;5030754;28;20441;-75
2022/10/05 13:20:17;;;;;;;3.57;2.87;;;20.70;1.00;;;;;;5081645;28;20437;-75
2022/10/05 13:22:59;;;;;;;3.13;2.83;;;20.70;1.00;;;;;;5095727;28;20422;-76
2022/10/05 13:25:40;;;;;;;4.70;3.43;;;20.80;1.00;;;;;;5079762;28;20456;-76
2022/10/05 13:28:22;;;;;;;3.30;2.97;;;20.90;1.00;;;;;;5078782;28;20424;-76
2022/10/05 13:31:16;;;;;;;3.20;3.00;;;20.90;1.00;;;;;;5077501;28;20427;-75
2022/10/05 13:34:11;;;;;;;3.80;3.50;;;20.80;1.00;;;;;;5076381;28;20421;-75
2022/10/05 13:37:04;;;;;;;4.47;3.87;;;20.60;1.00;;;;;;5081192;28;20472;-76
2022/10/05 13:39:41;;;;;;;3.00;2.80;;;20.70;1.00;;;;;;5080310;28;20430;-74
2022/10/05 13:42:27;;;;;;;6.40;3.20;;;20.70;1.00;;;;;;5082325;28;20491;-75
2022/10/05 13:45:09;;;;;;;5.20;3.50;;;20.70;1.00;;;;;;5086613;28;20481;-75
2022/10/05 13:48:10;;;;;;;4.23;3.43;;;20.70;1.00;;;;;;5082353;28;20421;-86
2022/10/05 13:51:08;;;;;;;3.67;3.37;;;20.60;1.00;;;;;;5078468;28;20487;-84
2022/10/05 13:54:24;;;;;;;4.00;3.50;;;20.60;1.00;;;;;;5088776;28;20930;-85
2022/10/05 14:00:23;;;;;;;5.17;3.63;;;20.60;1.00;;;;;;5008424;28;20408;-84
2022/10/05 14:02:55;;;;;;;6.57;3.67;;;20.90;1.00;;;;;;5004408;28;20871;-82
2022/10/05 14:05:26;;;;;;;5.70;3.37;;;20.90;1.00;;;;;;4983707;28;20450;-86
2022/10/05 14:11:35;;;;;;;5.87;3.83;;;21.00;1.00;;;;;;5013914;28;21036;-84
2022/10/05 14:14:22;;;;;;;4.87;3.60;;;21.10;1.00;;;;;;5016119;28;20450;-81
2022/10/05 14:16:55;;;;;;;7.40;3.90;;;21.20;1.00;;;;;;5011843;28;20429;-82
2022/10/05 14:19:54;;;;;;;4.23;3.43;;;21.30;1.00;;;;;;5015276;28;21080;-83
2022/10/05 14:22:40;;;;;;;5.73;3.57;;;21.20;1.00;;;;;;5019865;28;20466;-83
2022/10/05 14:25:22;;;;;;;7.67;3.90;;;21.40;1.00;;;;;;4979556;28;20491;-83
2022/10/05 14:28:27;;;;;;;7.47;3.50;;;21.40;1.00;;;;;;5018896;28;20445;-83
2022/10/05 14:35:07;;;;;;;6.20;4.03;;;21.40;1.00;;;;;;5070357;28;20919;-84
2022/10/05 14:38:00;;;;;;;5.13;3.90;;;21.30;1.00;;;;;;5083238;28;20420;-84
2022/10/05 14:41:24;;;;;;;4.70;3.93;;;21.40;1.00;;;;;;5074841;28;20400;-84
2022/10/05 14:47:23;;;;;;;4.00;3.60;;;21.40;1.00;;;;;;5076491;28;20385;-84
2022/10/05 14:50:14;;;;;;;3.70;3.40;;;21.30;1.00;;;;;;5086646;28;20450;-87
2022/10/05 14:53:13;;;;;;;8.80;4.03;;;21.20;1.00;;;;;;5075265;28;20954;-87
2022/10/05 15:02:43;;;;;;;4.53;3.87;;;21.30;1.00;;;;;;5010778;28;20433;-83
2022/10/05 15:05:33;;;;;;;5.13;3.20;;;21.30;1.00;;;;;;5012499;28;20456;-86
2022/10/05 15:08:32;;;;;;;4.00;3.60;;;21.30;1.00;;;;;;5004003;28;20417;-84
2022/10/05 15:14:34;;;;;;;3.67;3.47;;;21.40;1.00;;;;;;5009903;28;20818;-90
2022/10/05 15:17:19;;;;;;;6.53;3.07;;;21.50;1.00;;;;;;4983271;28;20437;-82
2022/10/05 15:20:33;;;;;;;3.20;3.00;;;21.80;1.00;;;;;;5011496;28;20445;-84
2022/10/05 15:23:30;;;;;;;9.00;3.70;;;22.30;1.00;;;;;;5008711;28;20458;-86
2022/10/05 15:26:35;;;;;;;6.83;3.67;;;23.10;1.00;;;;;;4993217;28;20404;-89
2022/10/05 15:33:04;;;;;;;4.67;2.73;;;25.50;1.00;;;;;;5069487;28;20534;-86
2022/10/05 15:36:16;;;;;;;3.43;3.00;;;26.30;1.00;;;;;;5078781;28;20422;-86
2022/10/05 15:39:16;;;;;;;3.37;3.10;;;26.50;1.00;;;;;;5079467;28;20436;-85
2022/10/05 15:42:21;;;;;;;3.00;2.70;;;27.20;1.00;;;;;;5083108;28;20974;-85
2022/10/05 15:45:31;;;;;;;6.30;2.80;;;27.80;1.00;;;;;;5081134;28;20431;-89
2022/10/05 15:48:41;;;;;;;5.00;2.63;;;28.30;1.00;;;;;;5001941;28;20431;-87
2022/10/05 15:51:51;;;;;;;5.07;3.00;;;28.80;1.00;;;;;;5012574;28;20444;-85
2022/10/05 15:54:54;;;;;;;33.27;4.00;;;29.30;1.00;;;;;;5031742;28;20434;-84
2022/10/05 15:57:52;;;;;;;8.17;2.50;;;29.00;1.00;;;;;;5030724;28;20437;-85
2022/10/05 16:00:24;;;;;;;10.00;2.60;;;28.40;1.00;;;;;;5011455;28;20430;-85
2022/10/05 16:03:24;;;;;;;7.13;3.10;;;27.80;1.00;;;;;;5028329;28;20485;-84
2022/10/05 16:08:59;;;;;;;10.90;3.20;;;26.40;1.00;;;;;;5031356;28;20445;-82
2022/10/05 16:12:00;;;;;;;9.63;3.50;;;25.80;1.00;;;;;;5031122;28;20496;-82
2022/10/05 16:14:55;;;;;;;14.30;3.37;;;25.20;1.00;;;;;;5013638;28;20496;-81
2022/10/05 16:17:46;;;;;;;5.47;2.93;;;24.60;1.00;;;;;;5026453;28;22108;-81
2022/10/05 16:20:51;;;;;;;7.07;3.10;;;24.00;1.00;;;;;;5024943;28;20429;-82
2022/10/05 16:23:31;;;;;;;7.90;3.57;;;23.40;1.00;;;;;;5020653;28;20445;-82
2022/10/05 16:26:31;;;;;;;8.07;4.00;;;23.00;1.00;;;;;;5085646;28;20447;-83
2022/10/05 16:29:20;;;;;;;3.20;2.90;;;22.60;1.00;;;;;;5072303;28;20424;-83
2022/10/05 16:31:58;;;;;;;3.93;2.90;;;22.20;1.00;;;;;;5073658;28;20460;-83
2022/10/05 16:34:53;;;;;;;9.17;3.30;;;21.90;1.00;;;;;;5074290;28;20503;-83
2022/10/05 16:38:10;;;;;;;6.03;3.20;;;21.50;1.00;;;;;;5087610;28;20770;-87
2022/10/05 16:41:21;;;;;;;11.53;3.90;;;21.20;1.00;;;;;;5086033;28;20446;-87
2022/10/05 16:44:26;;;;;;;20.43;4.30;;;20.80;1.00;;;;;;5076268;28;20426;-87
2022/10/05 16:47:24;;;;;;;9.53;3.80;;;20.50;1.00;;;;;;5074711;28;20385;-88
2022/10/05 16:50:12;;;;;;;6.27;3.70;;;20.20;1.00;;;;;;5095002;28;20438;-91